Weather History for KPYX - January, 2013

Change the Weather History Date:

Monday, January 28, 2013

  Actual Average Record
Temperature  
Mean Temperature 56 °F -  
Max Temperature 71 °F 50 °F 76 °F (1970)
Min Temperature 41 °F 18 °F 1 °F (1979)
Degree Days  
Heating Degree Days 9    
Growing Degree Days 6 (Base 50)    
Moisture  
Dew Point 32 °F    
Average Humidity 41    
Maximum Humidity 70    
Minimum Humidity 21    
Precipitation  
Precipitation 0.00 in - - ()
Sea Level Pressure  
Sea Level Pressure 29.75 in    
Wind  
Wind Speed 16 mph (SW)    
Max Wind Speed 29 mph    
Max Gust Speed 37 mph    
Visibility 10 miles    
Events      
Averages and records for this station are not official NWS values.
T = Trace of Precipitation, MM = Missing Value Source: NWS Daily Summary

Daily Weather History Graph

Daily Weather History Graph

Search for Another Location

Airport or City:

Trip Planner

Search our weather history database for the weather conditions in past years. The results will help you decide how hot, cold, wet, or windy it might be!

Date:

Astronomy

Jan. 28, 2013 Rise Set
Actual Time 7:47 AM CST 6:05 PM CST
Civil Twilight 7:19 AM CST 6:32 PM CST
Nautical Twilight 6:48 AM CST 7:03 PM CST
Astronomical Twilight 6:18 AM CST 7:34 PM CST
Moon 7:57 PM CST (1/28) 8:17 AM CST (1/28)
Length of Visible Light 11h 12m
Length of Day
10h 18m
Full, 98% of the Moon is Illuminated
Jan 28
Full
Feb 3
Last Quarter
Feb 10
New
Feb 17
First Quarter
Feb 25
Full

Hourly Weather History & Observations

Time (CST) Temp. Windchill Dew Point Humidity Pressure Visibility Wind Dir Wind Speed Gust Speed Precip Events Conditions
12:15 AM 50.0 °F - 32.0 °F 50% 29.80 in 10.0 mi SW 12.7 mph - N/A   Clear
12:35 AM 48.2 °F - 32.0 °F 54% 29.80 in 10.0 mi SW 10.4 mph - N/A   Clear
12:55 AM 46.4 °F 41.1 °F 32.0 °F 57% 29.81 in 10.0 mi SW 11.5 mph - N/A   Clear
1:15 AM 48.2 °F - 32.0 °F 54% 29.81 in 10.0 mi SW 13.8 mph - N/A   Clear
1:55 AM 50.0 °F - 32.0 °F 50% 29.80 in 10.0 mi SW 16.1 mph - N/A   Clear
2:15 AM 50.0 °F - 32.0 °F 50% 29.81 in 10.0 mi SW 16.1 mph - N/A   Clear
2:35 AM 50.0 °F - 32.0 °F 50% 29.82 in 10.0 mi SSW 15.0 mph - N/A   Clear
2:55 AM 46.4 °F 40.1 °F 32.0 °F 57% 29.81 in 10.0 mi SW 15.0 mph - N/A   Clear
3:15 AM 48.2 °F - 32.0 °F 54% 29.81 in 10.0 mi SW 13.8 mph - N/A   Clear
3:35 AM 46.4 °F 41.1 °F 32.0 °F 57% 29.81 in 10.0 mi SW 11.5 mph - N/A   Clear
3:55 AM 44.6 °F 39.2 °F 32.0 °F 61% 29.80 in 10.0 mi SW 10.4 mph - N/A   Clear
4:15 AM 44.6 °F 38.8 °F 32.0 °F 61% 29.80 in 10.0 mi SW 11.5 mph - N/A   Clear
4:35 AM 42.8 °F 36.6 °F 32.0 °F 66% 29.81 in 10.0 mi SW 11.5 mph - N/A   Clear
4:55 AM 42.8 °F 36.6 °F 32.0 °F 66% 29.81 in 10.0 mi SW 11.5 mph - N/A   Clear
5:15 AM 41.0 °F 34.3 °F 32.0 °F 70% 29.81 in 10.0 mi SSW 11.5 mph - N/A   Clear
5:35 AM 42.8 °F 37.0 °F 32.0 °F 66% 29.80 in 10.0 mi SSW 10.4 mph - N/A   Clear
6:15 AM 42.8 °F 37.5 °F 33.8 °F 70% 29.80 in 10.0 mi SSW 9.2 mph - N/A   Clear
6:35 AM 42.8 °F 37.0 °F 33.8 °F 70% 29.80 in 10.0 mi SSW 10.4 mph - N/A   Clear
6:55 AM 44.6 °F 38.8 °F 33.8 °F 66% 29.80 in 10.0 mi SW 11.5 mph - N/A   Clear
7:15 AM 46.4 °F 39.5 °F 33.8 °F 62% 29.80 in 10.0 mi SW 17.3 mph 21.9 mph N/A   Clear
7:35 AM 48.2 °F - 33.8 °F 58% 29.80 in 10.0 mi SW 18.4 mph - N/A   Clear
7:55 AM 46.4 °F 39.5 °F 33.8 °F 62% 29.82 in 10.0 mi SSW 17.3 mph - N/A   Clear
8:15 AM 46.4 °F 39.8 °F 33.8 °F 62% 29.83 in 10.0 mi SSW 16.1 mph - N/A   Clear
8:35 AM 46.4 °F 39.2 °F 33.8 °F 62% 29.83 in 10.0 mi SSW 18.4 mph - N/A   Clear
8:55 AM 50.0 °F - 35.6 °F 58% 29.83 in 10.0 mi SW 17.3 mph - N/A   Clear
9:15 AM 51.8 °F - 35.6 °F 54% 29.83 in 10.0 mi SW 17.3 mph 20.7 mph N/A   Clear
9:35 AM 55.4 °F - 35.6 °F 47% 29.82 in 10.0 mi SW 16.1 mph - N/A   Clear
9:55 AM 57.2 °F - 35.6 °F 44% 29.82 in 10.0 mi SW 17.3 mph 21.9 mph N/A   Clear
10:15 AM 62.6 °F - 35.6 °F 37% 29.81 in 10.0 mi SW 21.9 mph 27.6 mph N/A   Clear
10:35 AM 62.6 °F - 35.6 °F 37% 29.81 in 10.0 mi SSW 18.4 mph 26.5 mph N/A   Clear
10:55 AM 64.4 °F - 35.6 °F 34% 29.81 in 10.0 mi SSW 18.4 mph 21.9 mph N/A   Clear
11:15 AM 64.4 °F - 33.8 °F 32% 29.81 in 10.0 mi SSW 18.4 mph 23.0 mph N/A   Clear
11:35 AM 66.2 °F - 33.8 °F 30% 29.80 in 10.0 mi SW 20.7 mph 26.5 mph N/A   Clear
11:55 AM 68.0 °F - 33.8 °F 28% 29.79 in 10.0 mi SW 21.9 mph 26.5 mph N/A   Clear
12:15 PM 69.8 °F - 32.0 °F 25% 29.78 in 10.0 mi WSW 25.3 mph 32.2 mph N/A   Clear
12:35 PM 69.8 °F - 32.0 °F 25% 29.76 in 10.0 mi SW 20.7 mph 29.9 mph N/A   Clear
12:55 PM 71.6 °F - 32.0 °F 23% 29.74 in 10.0 mi SSW 21.9 mph 27.6 mph N/A   Clear
1:15 PM 71.6 °F - 32.0 °F 23% 29.73 in 10.0 mi SSW 24.2 mph 29.9 mph N/A   Clear
1:35 PM 71.6 °F - 32.0 °F 23% 29.72 in 10.0 mi SW 27.6 mph 32.2 mph N/A   Clear
1:55 PM 71.6 °F - 32.0 °F 23% 29.70 in 10.0 mi SW 27.6 mph 33.4 mph N/A   Clear
2:15 PM 71.6 °F - 32.0 °F 23% 29.69 in 10.0 mi SW 26.5 mph 34.5 mph N/A   Clear
2:35 PM 71.6 °F - 32.0 °F 23% 29.68 in 10.0 mi SW 25.3 mph 34.5 mph N/A   Clear
2:55 PM 71.6 °F - 32.0 °F 23% 29.68 in 10.0 mi SW 27.6 mph 35.7 mph N/A   Clear
3:15 PM 71.6 °F - 32.0 °F 23% 29.68 in 10.0 mi SW 28.8 mph 36.8 mph N/A   Clear
3:35 PM 71.6 °F - 32.0 °F 23% 29.67 in 10.0 mi SSW 24.2 mph 36.8 mph N/A   Clear
3:55 PM 71.6 °F - 32.0 °F 23% 29.67 in 10.0 mi SSW 27.6 mph 35.7 mph N/A   Clear
4:15 PM 71.6 °F - 30.2 °F 22% 29.67 in 10.0 mi SSW 28.8 mph 35.7 mph N/A   Clear
4:35 PM 71.6 °F - 30.2 °F 22% 29.66 in 10.0 mi SSW 23.0 mph 32.2 mph N/A   Clear
4:55 PM 69.8 °F - 28.4 °F 21% 29.66 in 10.0 mi SSW 26.5 mph 32.2 mph N/A   Clear
5:15 PM 69.8 °F - 30.2 °F 23% 29.66 in 10.0 mi SSW 24.2 mph 32.2 mph N/A   Clear
5:35 PM 68.0 °F - 30.2 °F 24% 29.66 in 10.0 mi SSW 17.3 mph - N/A   Clear
5:55 PM 66.2 °F - 30.2 °F 26% 29.66 in 10.0 mi SW 18.4 mph 24.2 mph N/A   Clear
6:15 PM 64.4 °F - 28.4 °F 26% 29.67 in 10.0 mi SSW 17.3 mph 24.2 mph N/A   Clear
6:35 PM 64.4 °F - 30.2 °F 28% 29.67 in 10.0 mi SSW 13.8 mph - N/A   Clear
6:55 PM 62.6 °F - 30.2 °F 30% 29.67 in 10.0 mi SSW 15.0 mph - N/A   Clear
7:15 PM 60.8 °F - 30.2 °F 31% 29.68 in 10.0 mi SSW 11.5 mph - N/A   Clear
7:35 PM 60.8 °F - 30.2 °F 31% 29.68 in 10.0 mi SSW 11.5 mph - N/A   Clear
7:55 PM 60.8 °F - 30.2 °F 31% 29.69 in 10.0 mi SSW 13.8 mph 19.6 mph N/A   Clear
8:15 PM 57.2 °F - 30.2 °F 36% 29.68 in 10.0 mi South 10.4 mph - N/A   Clear
8:35 PM 55.4 °F - 32.0 °F 41% 29.68 in 10.0 mi South 10.4 mph - N/A   Clear
8:55 PM 59.0 °F - 32.0 °F 36% 29.68 in 10.0 mi SSW 15.0 mph - N/A   Clear
9:15 PM 59.0 °F - 32.0 °F 36% 29.69 in 10.0 mi SSW 15.0 mph - N/A   Clear
9:35 PM 59.0 °F - 30.2 °F 34% 29.68 in 10.0 mi SSW 15.0 mph - N/A   Clear
9:55 PM 59.0 °F - 30.2 °F 34% 29.68 in 10.0 mi SSW 16.1 mph - N/A   Clear
10:15 PM 57.2 °F - 30.2 °F 36% 29.68 in 10.0 mi SSW 17.3 mph 21.9 mph N/A   Clear
10:35 PM 55.4 °F - 30.2 °F 38% 29.69 in 10.0 mi SW 17.3 mph - N/A   Clear
10:55 PM 53.6 °F - 30.2 °F 41% 29.69 in 10.0 mi SW 15.0 mph - N/A   Clear
11:15 PM 53.6 °F - 30.2 °F 41% 29.69 in 10.0 mi SW 17.3 mph - N/A   Clear
11:35 PM 55.4 °F - 30.2 °F 38% 29.69 in 10.0 mi SW 16.1 mph - N/A   Clear
11:55 PM 55.4 °F - 28.4 °F 36% 29.69 in 10.0 mi WSW 16.1 mph 21.9 mph N/A   Clear